sensor_id;sensor_type;location;lat;lon;timestamp;P1;durP1;ratioP1;P2;durP2;ratioP2
37411;SDS011;23278;52.110;6.050;2023-02-15T00:01:45;20.25;;;11.82;;
37411;SDS011;23278;52.110;6.050;2023-02-15T00:04:12;16.70;;;11.00;;
37411;SDS011;23278;52.110;6.050;2023-02-15T00:06:39;21.37;;;11.80;;
37411;SDS011;23278;52.110;6.050;2023-02-15T00:09:05;18.73;;;10.25;;
37411;SDS011;23278;52.110;6.050;2023-02-15T00:11:32;19.33;;;10.37;;
37411;SDS011;23278;52.110;6.050;2023-02-15T00:14:20;14.00;;;8.50;;
37411;SDS011;23278;52.110;6.050;2023-02-15T00:16:48;19.23;;;10.68;;
37411;SDS011;23278;52.110;6.050;2023-02-15T00:19:16;17.45;;;9.80;;
37411;SDS011;23278;52.110;6.050;2023-02-15T00:21:45;14.23;;;8.90;;
37411;SDS011;23278;52.110;6.050;2023-02-15T00:24:12;20.00;;;11.60;;
37411;SDS011;23278;52.110;6.050;2023-02-15T00:26:41;22.07;;;13.27;;
37411;SDS011;23278;52.110;6.050;2023-02-15T00:29:08;23.70;;;12.90;;
37411;SDS011;23278;52.110;6.050;2023-02-15T00:31:35;26.87;;;14.07;;
37411;SDS011;23278;52.110;6.050;2023-02-15T00:34:05;20.80;;;12.90;;
37411;SDS011;23278;52.110;6.050;2023-02-15T00:36:31;17.40;;;10.33;;
37411;SDS011;23278;52.110;6.050;2023-02-15T00:38:58;21.13;;;11.83;;
37411;SDS011;23278;52.110;6.050;2023-02-15T00:41:24;19.57;;;11.77;;
37411;SDS011;23278;52.110;6.050;2023-02-15T00:43:50;18.17;;;11.27;;
37411;SDS011;23278;52.110;6.050;2023-02-15T00:46:16;19.97;;;12.03;;
37411;SDS011;23278;52.110;6.050;2023-02-15T00:48:42;20.30;;;10.93;;
37411;SDS011;23278;52.110;6.050;2023-02-15T00:51:08;15.40;;;9.43;;
37411;SDS011;23278;52.110;6.050;2023-02-15T00:53:34;18.17;;;10.93;;
37411;SDS011;23278;52.110;6.050;2023-02-15T00:56:00;15.40;;;9.77;;
37411;SDS011;23278;52.110;6.050;2023-02-15T00:58:25;21.48;;;11.05;;
37411;SDS011;23278;52.110;6.050;2023-02-15T01:00:51;18.73;;;10.07;;
37411;SDS011;23278;52.110;6.050;2023-02-15T01:03:18;20.53;;;11.60;;
37411;SDS011;23278;52.110;6.050;2023-02-15T01:05:46;19.70;;;10.93;;
37411;SDS011;23278;52.110;6.050;2023-02-15T01:08:14;17.23;;;9.63;;
37411;SDS011;23278;52.110;6.050;2023-02-15T01:10:40;17.73;;;10.43;;
37411;SDS011;23278;52.110;6.050;2023-02-15T01:13:07;20.07;;;10.43;;
37411;SDS011;23278;52.110;6.050;2023-02-15T01:15:34;13.63;;;9.43;;
37411;SDS011;23278;52.110;6.050;2023-02-15T01:18:01;17.33;;;9.17;;
37411;SDS011;23278;52.110;6.050;2023-02-15T01:20:27;20.08;;;10.43;;
37411;SDS011;23278;52.110;6.050;2023-02-15T01:22:54;18.33;;;10.10;;
37411;SDS011;23278;52.110;6.050;2023-02-15T01:25:22;18.37;;;9.80;;
37411;SDS011;23278;52.110;6.050;2023-02-15T01:27:50;14.80;;;8.97;;
37411;SDS011;23278;52.110;6.050;2023-02-15T01:30:16;18.20;;;9.70;;
37411;SDS011;23278;52.110;6.050;2023-02-15T01:32:42;17.97;;;10.10;;
37411;SDS011;23278;52.110;6.050;2023-02-15T01:35:09;14.50;;;8.70;;
37411;SDS011;23278;52.110;6.050;2023-02-15T01:37:35;16.17;;;9.20;;
37411;SDS011;23278;52.110;6.050;2023-02-15T01:40:05;22.93;;;12.23;;
37411;SDS011;23278;52.110;6.050;2023-02-15T01:42:33;15.93;;;9.20;;
37411;SDS011;23278;52.110;6.050;2023-02-15T01:45:00;16.33;;;9.40;;
37411;SDS011;23278;52.110;6.050;2023-02-15T01:47:32;19.43;;;10.77;;
37411;SDS011;23278;52.110;6.050;2023-02-15T01:50:15;15.47;;;8.17;;
37411;SDS011;23278;52.110;6.050;2023-02-15T01:53:01;19.20;;;11.33;;
37411;SDS011;23278;52.110;6.050;2023-02-15T01:55:36;18.20;;;9.87;;
37411;SDS011;23278;52.110;6.050;2023-02-15T01:58:04;19.13;;;10.80;;
37411;SDS011;23278;52.110;6.050;2023-02-15T02:00:32;17.50;;;9.80;;
37411;SDS011;23278;52.110;6.050;2023-02-15T02:02:59;17.40;;;9.30;;
37411;SDS011;23278;52.110;6.050;2023-02-15T02:05:26;15.90;;;8.57;;
37411;SDS011;23278;52.110;6.050;2023-02-15T02:07:55;20.23;;;10.90;;
37411;SDS011;23278;52.110;6.050;2023-02-15T02:10:24;14.50;;;8.97;;
37411;SDS011;23278;52.110;6.050;2023-02-15T02:12:52;15.73;;;9.37;;
37411;SDS011;23278;52.110;6.050;2023-02-15T02:15:33;19.17;;;10.52;;
37411;SDS011;23278;52.110;6.050;2023-02-15T02:23:43;18.97;;;10.60;;
37411;SDS011;23278;52.110;6.050;2023-02-15T02:32:15;18.10;;;10.27;;
37411;SDS011;23278;52.110;6.050;2023-02-15T02:34:56;13.47;;;6.67;;
37411;SDS011;23278;52.110;6.050;2023-02-15T02:41:05;15.93;;;9.10;;
37411;SDS011;23278;52.110;6.050;2023-02-15T02:44:02;19.63;;;9.93;;
37411;SDS011;23278;52.110;6.050;2023-02-15T02:46:59;15.50;;;9.33;;
37411;SDS011;23278;52.110;6.050;2023-02-15T02:49:58;16.87;;;8.97;;
37411;SDS011;23278;52.110;6.050;2023-02-15T02:55:02;20.07;;;8.90;;
37411;SDS011;23278;52.110;6.050;2023-02-15T02:57:31;14.93;;;7.97;;
37411;SDS011;23278;52.110;6.050;2023-02-15T03:00:00;17.10;;;9.53;;
37411;SDS011;23278;52.110;6.050;2023-02-15T03:02:29;21.57;;;9.77;;
37411;SDS011;23278;52.110;6.050;2023-02-15T03:05:05;17.52;;;9.38;;
37411;SDS011;23278;52.110;6.050;2023-02-15T03:07:36;17.40;;;9.90;;
37411;SDS011;23278;52.110;6.050;2023-02-15T03:10:03;17.03;;;9.47;;
37411;SDS011;23278;52.110;6.050;2023-02-15T03:12:32;18.33;;;10.47;;
37411;SDS011;23278;52.110;6.050;2023-02-15T03:15:11;18.00;;;9.80;;
37411;SDS011;23278;52.110;6.050;2023-02-15T03:17:48;17.37;;;9.33;;
37411;SDS011;23278;52.110;6.050;2023-02-15T03:20:23;14.52;;;9.30;;
37411;SDS011;23278;52.110;6.050;2023-02-15T03:22:56;18.90;;;9.57;;
37411;SDS011;23278;52.110;6.050;2023-02-15T03:25:40;19.47;;;9.47;;
37411;SDS011;23278;52.110;6.050;2023-02-15T03:28:15;16.20;;;8.97;;
37411;SDS011;23278;52.110;6.050;2023-02-15T03:30:45;15.37;;;7.57;;
37411;SDS011;23278;52.110;6.050;2023-02-15T03:33:14;14.47;;;8.57;;
37411;SDS011;23278;52.110;6.050;2023-02-15T03:35:45;17.93;;;10.40;;
37411;SDS011;23278;52.110;6.050;2023-02-15T03:38:25;16.70;;;9.03;;
37411;SDS011;23278;52.110;6.050;2023-02-15T03:40:59;19.33;;;10.23;;
37411;SDS011;23278;52.110;6.050;2023-02-15T03:43:48;16.63;;;8.40;;
37411;SDS011;23278;52.110;6.050;2023-02-15T03:49:08;20.20;;;9.53;;
37411;SDS011;23278;52.110;6.050;2023-02-15T03:51:46;13.67;;;8.23;;
37411;SDS011;23278;52.110;6.050;2023-02-15T03:54:18;16.03;;;8.97;;
37411;SDS011;23278;52.110;6.050;2023-02-15T03:57:12;16.83;;;9.33;;
37411;SDS011;23278;52.110;6.050;2023-02-15T04:00:06;14.67;;;8.33;;
37411;SDS011;23278;52.110;6.050;2023-02-15T04:05:33;18.47;;;8.37;;
37411;SDS011;23278;52.110;6.050;2023-02-15T04:07:58;18.00;;;9.37;;
37411;SDS011;23278;52.110;6.050;2023-02-15T04:10:24;16.10;;;9.53;;
37411;SDS011;23278;52.110;6.050;2023-02-15T04:13:09;16.73;;;9.50;;
37411;SDS011;23278;52.110;6.050;2023-02-15T04:15:34;16.27;;;9.37;;
37411;SDS011;23278;52.110;6.050;2023-02-15T04:18:19;16.37;;;8.47;;
37411;SDS011;23278;52.110;6.050;2023-02-15T04:20:45;12.17;;;7.80;;
37411;SDS011;23278;52.110;6.050;2023-02-15T04:23:30;17.10;;;9.37;;
37411;SDS011;23278;52.110;6.050;2023-02-15T04:26:15;19.70;;;10.03;;
37411;SDS011;23278;52.110;6.050;2023-02-15T04:28:41;20.67;;;10.00;;
37411;SDS011;23278;52.110;6.050;2023-02-15T04:31:07;18.37;;;9.63;;
37411;SDS011;23278;52.110;6.050;2023-02-15T04:33:33;13.87;;;8.60;;
37411;SDS011;23278;52.110;6.050;2023-02-15T04:36:01;18.23;;;8.97;;
37411;SDS011;23278;52.110;6.050;2023-02-15T04:38:28;12.73;;;7.27;;
37411;SDS011;23278;52.110;6.050;2023-02-15T04:40:54;16.33;;;9.17;;
37411;SDS011;23278;52.110;6.050;2023-02-15T04:43:20;19.47;;;8.87;;
37411;SDS011;23278;52.110;6.050;2023-02-15T04:45:49;20.67;;;11.03;;
37411;SDS011;23278;52.110;6.050;2023-02-15T04:48:16;17.57;;;10.57;;
37411;SDS011;23278;52.110;6.050;2023-02-15T04:50:43;19.97;;;11.63;;
37411;SDS011;23278;52.110;6.050;2023-02-15T04:53:09;27.40;;;12.37;;
37411;SDS011;23278;52.110;6.050;2023-02-15T04:55:35;20.47;;;10.83;;
37411;SDS011;23278;52.110;6.050;2023-02-15T04:58:01;19.83;;;11.17;;
37411;SDS011;23278;52.110;6.050;2023-02-15T05:00:27;20.27;;;10.27;;
37411;SDS011;23278;52.110;6.050;2023-02-15T05:02:53;20.33;;;10.63;;
37411;SDS011;23278;52.110;6.050;2023-02-15T05:05:19;23.80;;;11.70;;
37411;SDS011;23278;52.110;6.050;2023-02-15T05:07:44;15.73;;;9.37;;
37411;SDS011;23278;52.110;6.050;2023-02-15T05:10:10;21.60;;;11.07;;
37411;SDS011;23278;52.110;6.050;2023-02-15T05:12:36;18.73;;;9.27;;
37411;SDS011;23278;52.110;6.050;2023-02-15T05:15:02;21.80;;;11.83;;
37411;SDS011;23278;52.110;6.050;2023-02-15T05:17:28;19.00;;;10.57;;
37411;SDS011;23278;52.110;6.050;2023-02-15T05:19:54;21.40;;;11.07;;
37411;SDS011;23278;52.110;6.050;2023-02-15T05:22:20;21.07;;;11.07;;
37411;SDS011;23278;52.110;6.050;2023-02-15T05:24:46;22.47;;;10.40;;
37411;SDS011;23278;52.110;6.050;2023-02-15T05:27:30;16.17;;;8.07;;
37411;SDS011;23278;52.110;6.050;2023-02-15T05:30:15;18.87;;;9.87;;
37411;SDS011;23278;52.110;6.050;2023-02-15T05:32:40;19.33;;;10.27;;
37411;SDS011;23278;52.110;6.050;2023-02-15T05:35:06;22.57;;;11.77;;
37411;SDS011;23278;52.110;6.050;2023-02-15T05:37:33;20.30;;;12.40;;
37411;SDS011;23278;52.110;6.050;2023-02-15T05:39:59;19.40;;;9.57;;
37411;SDS011;23278;52.110;6.050;2023-02-15T05:42:25;21.17;;;12.73;;
37411;SDS011;23278;52.110;6.050;2023-02-15T05:44:50;18.17;;;8.80;;
37411;SDS011;23278;52.110;6.050;2023-02-15T05:47:16;20.97;;;11.17;;
37411;SDS011;23278;52.110;6.050;2023-02-15T05:49:42;18.90;;;10.27;;
37411;SDS011;23278;52.110;6.050;2023-02-15T05:52:08;18.70;;;9.13;;
37411;SDS011;23278;52.110;6.050;2023-02-15T05:54:34;27.07;;;10.93;;
37411;SDS011;23278;52.110;6.050;2023-02-15T05:56:59;27.83;;;11.20;;
37411;SDS011;23278;52.110;6.050;2023-02-15T05:59:25;18.13;;;10.83;;
37411;SDS011;23278;52.110;6.050;2023-02-15T06:01:51;26.33;;;12.17;;
37411;SDS011;23278;52.110;6.050;2023-02-15T06:04:17;22.50;;;12.13;;
37411;SDS011;23278;52.110;6.050;2023-02-15T06:06:43;25.23;;;12.17;;
37411;SDS011;23278;52.110;6.050;2023-02-15T06:09:10;23.07;;;11.47;;
37411;SDS011;23278;52.110;6.050;2023-02-15T06:11:37;20.83;;;10.63;;
37411;SDS011;23278;52.110;6.050;2023-02-15T06:14:02;23.47;;;12.43;;
37411;SDS011;23278;52.110;6.050;2023-02-15T06:16:28;23.23;;;12.07;;
37411;SDS011;23278;52.110;6.050;2023-02-15T06:18:54;17.70;;;10.63;;
37411;SDS011;23278;52.110;6.050;2023-02-15T06:21:20;17.73;;;8.80;;
37411;SDS011;23278;52.110;6.050;2023-02-15T06:23:46;17.07;;;9.63;;
37411;SDS011;23278;52.110;6.050;2023-02-15T06:26:12;16.67;;;9.27;;
37411;SDS011;23278;52.110;6.050;2023-02-15T06:28:38;14.17;;;8.07;;
37411;SDS011;23278;52.110;6.050;2023-02-15T06:31:06;17.63;;;9.33;;
37411;SDS011;23278;52.110;6.050;2023-02-15T06:33:32;17.57;;;9.97;;
37411;SDS011;23278;52.110;6.050;2023-02-15T06:36:01;18.67;;;9.50;;
37411;SDS011;23278;52.110;6.050;2023-02-15T06:38:29;20.40;;;10.97;;
37411;SDS011;23278;52.110;6.050;2023-02-15T06:40:55;23.57;;;11.83;;
37411;SDS011;23278;52.110;6.050;2023-02-15T06:43:23;22.00;;;11.00;;
37411;SDS011;23278;52.110;6.050;2023-02-15T06:45:49;18.40;;;8.80;;
37411;SDS011;23278;52.110;6.050;2023-02-15T06:48:15;22.77;;;11.83;;
37411;SDS011;23278;52.110;6.050;2023-02-15T06:50:41;22.70;;;10.90;;
37411;SDS011;23278;52.110;6.050;2023-02-15T06:53:07;26.83;;;12.30;;
37411;SDS011;23278;52.110;6.050;2023-02-15T06:55:35;24.07;;;11.63;;
37411;SDS011;23278;52.110;6.050;2023-02-15T06:58:01;21.77;;;9.07;;
37411;SDS011;23278;52.110;6.050;2023-02-15T07:00:27;22.83;;;10.90;;
37411;SDS011;23278;52.110;6.050;2023-02-15T07:02:56;20.13;;;11.37;;
37411;SDS011;23278;52.110;6.050;2023-02-15T07:05:27;23.07;;;11.20;;
37411;SDS011;23278;52.110;6.050;2023-02-15T07:07:56;22.85;;;11.95;;
37411;SDS011;23278;52.110;6.050;2023-02-15T07:10:23;19.33;;;11.40;;
37411;SDS011;23278;52.110;6.050;2023-02-15T07:12:48;21.87;;;10.50;;
37411;SDS011;23278;52.110;6.050;2023-02-15T07:15:15;19.37;;;10.37;;
37411;SDS011;23278;52.110;6.050;2023-02-15T07:17:43;26.80;;;12.60;;
37411;SDS011;23278;52.110;6.050;2023-02-15T07:20:19;22.80;;;12.67;;
37411;SDS011;23278;52.110;6.050;2023-02-15T07:22:47;23.37;;;11.67;;
37411;SDS011;23278;52.110;6.050;2023-02-15T07:25:14;23.83;;;11.63;;
37411;SDS011;23278;52.110;6.050;2023-02-15T07:27:40;25.03;;;12.33;;
37411;SDS011;23278;52.110;6.050;2023-02-15T07:30:07;20.17;;;10.93;;
37411;SDS011;23278;52.110;6.050;2023-02-15T07:32:35;26.80;;;14.57;;
37411;SDS011;23278;52.110;6.050;2023-02-15T07:35:01;29.43;;;14.73;;
37411;SDS011;23278;52.110;6.050;2023-02-15T07:37:27;30.27;;;16.00;;
37411;SDS011;23278;52.110;6.050;2023-02-15T07:39:53;28.13;;;14.37;;
37411;SDS011;23278;52.110;6.050;2023-02-15T07:42:19;28.50;;;14.10;;
37411;SDS011;23278;52.110;6.050;2023-02-15T07:44:46;27.97;;;14.67;;
37411;SDS011;23278;52.110;6.050;2023-02-15T07:47:12;25.33;;;12.97;;
37411;SDS011;23278;52.110;6.050;2023-02-15T07:49:40;20.13;;;12.33;;
37411;SDS011;23278;52.110;6.050;2023-02-15T07:52:06;27.23;;;15.60;;
37411;SDS011;23278;52.110;6.050;2023-02-15T07:54:31;27.90;;;15.57;;
37411;SDS011;23278;52.110;6.050;2023-02-15T07:56:57;28.13;;;15.70;;
37411;SDS011;23278;52.110;6.050;2023-02-15T07:59:23;29.10;;;15.77;;
37411;SDS011;23278;52.110;6.050;2023-02-15T08:01:49;27.63;;;14.67;;
37411;SDS011;23278;52.110;6.050;2023-02-15T08:04:16;29.63;;;16.63;;
37411;SDS011;23278;52.110;6.050;2023-02-15T08:06:43;26.13;;;14.77;;
37411;SDS011;23278;52.110;6.050;2023-02-15T08:09:09;28.03;;;15.60;;
37411;SDS011;23278;52.110;6.050;2023-02-15T08:11:35;21.60;;;13.37;;
37411;SDS011;23278;52.110;6.050;2023-02-15T08:19:09;30.90;;;17.70;;
37411;SDS011;23278;52.110;6.050;2023-02-15T08:21:39;34.00;;;17.75;;
37411;SDS011;23278;52.110;6.050;2023-02-15T08:24:07;29.45;;;18.98;;
37411;SDS011;23278;52.110;6.050;2023-02-15T08:26:34;37.30;;;20.63;;
37411;SDS011;23278;52.110;6.050;2023-02-15T08:29:00;29.80;;;18.67;;
37411;SDS011;23278;52.110;6.050;2023-02-15T08:31:27;33.72;;;19.88;;
37411;SDS011;23278;52.110;6.050;2023-02-15T08:33:54;36.85;;;18.98;;
37411;SDS011;23278;52.110;6.050;2023-02-15T08:36:26;30.27;;;18.25;;
37411;SDS011;23278;52.110;6.050;2023-02-15T08:38:57;29.20;;;17.23;;
37411;SDS011;23278;52.110;6.050;2023-02-15T08:41:25;27.55;;;16.52;;
37411;SDS011;23278;52.110;6.050;2023-02-15T08:43:55;27.60;;;17.67;;
37411;SDS011;23278;52.110;6.050;2023-02-15T08:46:23;25.98;;;15.35;;
37411;SDS011;23278;52.110;6.050;2023-02-15T08:48:51;26.83;;;17.48;;
37411;SDS011;23278;52.110;6.050;2023-02-15T08:51:21;28.25;;;17.83;;
37411;SDS011;23278;52.110;6.050;2023-02-15T08:53:52;24.33;;;15.15;;
37411;SDS011;23278;52.110;6.050;2023-02-15T08:56:21;26.10;;;17.45;;
37411;SDS011;23278;52.110;6.050;2023-02-15T08:58:49;28.05;;;18.38;;
37411;SDS011;23278;52.110;6.050;2023-02-15T09:01:16;28.30;;;17.17;;
37411;SDS011;23278;52.110;6.050;2023-02-15T09:03:46;26.48;;;18.30;;
37411;SDS011;23278;52.110;6.050;2023-02-15T09:06:16;30.85;;;19.33;;
37411;SDS011;23278;52.110;6.050;2023-02-15T09:08:42;29.40;;;18.50;;
37411;SDS011;23278;52.110;6.050;2023-02-15T09:11:13;28.38;;;19.50;;
37411;SDS011;23278;52.110;6.050;2023-02-15T09:13:47;28.38;;;18.35;;
37411;SDS011;23278;52.110;6.050;2023-02-15T09:16:14;24.88;;;15.90;;
37411;SDS011;23278;52.110;6.050;2023-02-15T09:18:42;26.98;;;17.23;;
37411;SDS011;23278;52.110;6.050;2023-02-15T09:21:09;28.30;;;17.55;;
37411;SDS011;23278;52.110;6.050;2023-02-15T09:23:39;25.23;;;17.73;;
37411;SDS011;23278;52.110;6.050;2023-02-15T09:26:09;25.33;;;18.08;;
37411;SDS011;23278;52.110;6.050;2023-02-15T09:28:37;24.13;;;16.88;;
37411;SDS011;23278;52.110;6.050;2023-02-15T09:31:07;24.15;;;17.45;;
37411;SDS011;23278;52.110;6.050;2023-02-15T09:33:41;24.02;;;17.05;;
37411;SDS011;23278;52.110;6.050;2023-02-15T09:36:27;23.27;;;16.13;;
37411;SDS011;23278;52.110;6.050;2023-02-15T09:55:44;21.98;;;14.50;;
37411;SDS011;23278;52.110;6.050;2023-02-15T10:20:59;20.52;;;12.88;;
37411;SDS011;23278;52.110;6.050;2023-02-15T10:23:42;20.95;;;13.98;;
37411;SDS011;23278;52.110;6.050;2023-02-15T10:32:31;26.33;;;16.40;;
37411;SDS011;23278;52.110;6.050;2023-02-15T10:34:47;25.58;;;14.90;;
37411;SDS011;23278;52.110;6.050;2023-02-15T10:40:28;23.90;;;15.88;;
37411;SDS011;23278;52.110;6.050;2023-02-15T10:46:29;21.30;;;14.18;;
37411;SDS011;23278;52.110;6.050;2023-02-15T10:52:17;19.23;;;13.40;;
37411;SDS011;23278;52.110;6.050;2023-02-15T11:00:52;22.52;;;13.48;;
37411;SDS011;23278;52.110;6.050;2023-02-15T11:06:49;21.67;;;13.95;;
37411;SDS011;23278;52.110;6.050;2023-02-15T11:09:19;21.85;;;13.82;;
37411;SDS011;23278;52.110;6.050;2023-02-15T11:11:53;22.25;;;14.90;;
37411;SDS011;23278;52.110;6.050;2023-02-15T11:14:33;26.17;;;13.60;;
37411;SDS011;23278;52.110;6.050;2023-02-15T11:17:14;21.20;;;14.52;;
37411;SDS011;23278;52.110;6.050;2023-02-15T11:22:33;22.25;;;14.77;;
37411;SDS011;23278;52.110;6.050;2023-02-15T11:25:00;22.75;;;15.68;;
37411;SDS011;23278;52.110;6.050;2023-02-15T11:27:29;22.70;;;15.50;;
37411;SDS011;23278;52.110;6.050;2023-02-15T11:30:05;20.40;;;14.90;;
37411;SDS011;23278;52.110;6.050;2023-02-15T11:33:01;19.55;;;13.02;;
37411;SDS011;23278;52.110;6.050;2023-02-15T11:35:41;21.67;;;13.98;;
37411;SDS011;23278;52.110;6.050;2023-02-15T11:38:24;18.73;;;13.98;;
37411;SDS011;23278;52.110;6.050;2023-02-15T11:40:59;20.17;;;13.05;;
37411;SDS011;23278;52.110;6.050;2023-02-15T11:46:07;20.48;;;14.75;;
37411;SDS011;23278;52.110;6.050;2023-02-15T11:48:36;19.15;;;13.18;;
37411;SDS011;23278;52.110;6.050;2023-02-15T11:51:02;18.80;;;10.43;;
37411;SDS011;23278;52.110;6.050;2023-02-15T11:53:32;20.58;;;13.48;;
37411;SDS011;23278;52.110;6.050;2023-02-15T11:55:59;18.20;;;13.07;;
37411;SDS011;23278;52.110;6.050;2023-02-15T12:01:16;20.88;;;12.68;;
37411;SDS011;23278;52.110;6.050;2023-02-15T12:03:48;18.23;;;13.25;;
37411;SDS011;23278;52.110;6.050;2023-02-15T12:06:22;19.40;;;14.18;;
37411;SDS011;23278;52.110;6.050;2023-02-15T12:11:50;24.38;;;15.57;;
37411;SDS011;23278;52.110;6.050;2023-02-15T12:14:15;18.75;;;12.75;;
37411;SDS011;23278;52.110;6.050;2023-02-15T12:19:28;24.08;;;14.40;;
37411;SDS011;23278;52.110;6.050;2023-02-15T12:22:03;18.77;;;14.05;;
37411;SDS011;23278;52.110;6.050;2023-02-15T12:24:34;19.75;;;13.88;;
37411;SDS011;23278;52.110;6.050;2023-02-15T12:27:04;17.95;;;12.25;;
37411;SDS011;23278;52.110;6.050;2023-02-15T12:29:40;21.15;;;12.90;;
37411;SDS011;23278;52.110;6.050;2023-02-15T12:32:18;19.80;;;14.05;;
37411;SDS011;23278;52.110;6.050;2023-02-15T12:34:48;19.15;;;12.55;;
37411;SDS011;23278;52.110;6.050;2023-02-15T12:37:21;17.52;;;13.52;;
37411;SDS011;23278;52.110;6.050;2023-02-15T12:39:57;19.90;;;12.35;;
37411;SDS011;23278;52.110;6.050;2023-02-15T12:42:25;18.83;;;12.50;;
37411;SDS011;23278;52.110;6.050;2023-02-15T12:47:30;18.35;;;13.07;;
37411;SDS011;23278;52.110;6.050;2023-02-15T12:50:13;21.67;;;14.02;;
37411;SDS011;23278;52.110;6.050;2023-02-15T12:52:51;19.02;;;13.68;;
37411;SDS011;23278;52.110;6.050;2023-02-15T12:55:30;25.02;;;15.75;;
37411;SDS011;23278;52.110;6.050;2023-02-15T12:58:39;20.20;;;14.35;;
37411;SDS011;23278;52.110;6.050;2023-02-15T13:01:10;22.58;;;15.57;;
37411;SDS011;23278;52.110;6.050;2023-02-15T13:03:38;19.27;;;13.70;;
37411;SDS011;23278;52.110;6.050;2023-02-15T13:06:19;19.30;;;13.70;;
37411;SDS011;23278;52.110;6.050;2023-02-15T13:08:47;18.52;;;12.93;;
37411;SDS011;23278;52.110;6.050;2023-02-15T13:11:26;21.88;;;14.82;;
37411;SDS011;23278;52.110;6.050;2023-02-15T13:14:00;23.20;;;13.00;;
37411;SDS011;23278;52.110;6.050;2023-02-15T13:19:12;19.38;;;13.68;;
37411;SDS011;23278;52.110;6.050;2023-02-15T13:21:39;20.55;;;13.20;;
37411;SDS011;23278;52.110;6.050;2023-02-15T13:26:43;17.77;;;11.02;;
37411;SDS011;23278;52.110;6.050;2023-02-15T13:29:18;16.60;;;12.25;;
37411;SDS011;23278;52.110;6.050;2023-02-15T13:31:50;21.58;;;13.75;;
37411;SDS011;23278;52.110;6.050;2023-02-15T13:37:04;19.50;;;12.55;;
37411;SDS011;23278;52.110;6.050;2023-02-15T13:39:41;24.40;;;16.40;;
37411;SDS011;23278;52.110;6.050;2023-02-15T13:55:34;19.42;;;13.10;;
37411;SDS011;23278;52.110;6.050;2023-02-15T14:03:43;20.20;;;14.30;;
37411;SDS011;23278;52.110;6.050;2023-02-15T14:09:22;17.95;;;12.88;;
37411;SDS011;23278;52.110;6.050;2023-02-15T14:14:47;23.15;;;13.07;;
37411;SDS011;23278;52.110;6.050;2023-02-15T14:20:18;21.08;;;14.70;;
37411;SDS011;23278;52.110;6.050;2023-02-15T14:25:41;20.20;;;13.70;;
37411;SDS011;23278;52.110;6.050;2023-02-15T14:28:16;21.60;;;14.27;;
37411;SDS011;23278;52.110;6.050;2023-02-15T14:30:53;22.05;;;14.40;;
37411;SDS011;23278;52.110;6.050;2023-02-15T14:33:25;23.73;;;16.30;;
37411;SDS011;23278;52.110;6.050;2023-02-15T14:36:10;36.25;;;15.48;;
37411;SDS011;23278;52.110;6.050;2023-02-15T14:44:17;24.00;;;15.10;;
37411;SDS011;23278;52.110;6.050;2023-02-15T14:46:59;22.58;;;16.02;;
37411;SDS011;23278;52.110;6.050;2023-02-15T14:49:33;26.85;;;15.70;;
37411;SDS011;23278;52.110;6.050;2023-02-15T15:04:33;20.85;;;13.50;;
37411;SDS011;23278;52.110;6.050;2023-02-15T15:07:22;21.48;;;14.23;;
37411;SDS011;23278;52.110;6.050;2023-02-15T15:10:23;17.65;;;13.55;;
37411;SDS011;23278;52.110;6.050;2023-02-15T15:13:00;23.05;;;15.18;;
37411;SDS011;23278;52.110;6.050;2023-02-15T15:19:05;34.78;;;19.23;;
37411;SDS011;23278;52.110;6.050;2023-02-15T15:46:41;25.45;;;15.15;;
37411;SDS011;23278;52.110;6.050;2023-02-15T15:49:33;33.78;;;18.83;;
37411;SDS011;23278;52.110;6.050;2023-02-15T15:52:02;29.05;;;17.77;;
37411;SDS011;23278;52.110;6.050;2023-02-15T15:54:35;33.03;;;19.58;;
37411;SDS011;23278;52.110;6.050;2023-02-15T15:57:05;32.22;;;19.88;;
37411;SDS011;23278;52.110;6.050;2023-02-15T15:59:57;30.58;;;18.60;;
37411;SDS011;23278;52.110;6.050;2023-02-15T16:02:27;31.23;;;19.10;;
37411;SDS011;23278;52.110;6.050;2023-02-15T16:04:53;29.80;;;18.63;;
37411;SDS011;23278;52.110;6.050;2023-02-15T16:12:25;28.90;;;18.27;;
37411;SDS011;23278;52.110;6.050;2023-02-15T16:14:53;23.17;;;15.98;;
37411;SDS011;23278;52.110;6.050;2023-02-15T16:17:21;23.63;;;15.63;;
37411;SDS011;23278;52.110;6.050;2023-02-15T16:19:49;22.77;;;14.68;;
37411;SDS011;23278;52.110;6.050;2023-02-15T16:22:20;24.98;;;15.13;;
37411;SDS011;23278;52.110;6.050;2023-02-15T16:33:03;21.27;;;13.38;;
37411;SDS011;23278;52.110;6.050;2023-02-15T16:35:38;19.42;;;11.77;;
37411;SDS011;23278;52.110;6.050;2023-02-15T16:38:08;20.65;;;11.88;;
37411;SDS011;23278;52.110;6.050;2023-02-15T16:40:42;20.23;;;12.25;;
37411;SDS011;23278;52.110;6.050;2023-02-15T16:43:16;17.17;;;11.25;;
37411;SDS011;23278;52.110;6.050;2023-02-15T16:45:46;17.20;;;11.82;;
37411;SDS011;23278;52.110;6.050;2023-02-15T16:48:14;15.85;;;11.27;;
37411;SDS011;23278;52.110;6.050;2023-02-15T16:50:47;23.65;;;13.60;;
37411;SDS011;23278;52.110;6.050;2023-02-15T16:53:20;21.10;;;13.85;;
37411;SDS011;23278;52.110;6.050;2023-02-15T16:55:50;28.40;;;17.88;;
37411;SDS011;23278;52.110;6.050;2023-02-15T16:58:19;34.92;;;20.40;;
37411;SDS011;23278;52.110;6.050;2023-02-15T17:00:51;32.60;;;19.55;;
37411;SDS011;23278;52.110;6.050;2023-02-15T17:03:25;35.97;;;20.52;;
37411;SDS011;23278;52.110;6.050;2023-02-15T17:05:56;26.02;;;16.67;;
37411;SDS011;23278;52.110;6.050;2023-02-15T17:08:42;28.58;;;16.83;;
37411;SDS011;23278;52.110;6.050;2023-02-15T17:19:28;23.52;;;12.85;;
37411;SDS011;23278;52.110;6.050;2023-02-15T17:21:57;17.42;;;11.93;;
37411;SDS011;23278;52.110;6.050;2023-02-15T17:27:00;24.83;;;13.40;;
37411;SDS011;23278;52.110;6.050;2023-02-15T17:32:02;29.17;;;13.20;;
37411;SDS011;23278;52.110;6.050;2023-02-15T17:42:49;17.40;;;11.70;;
37411;SDS011;23278;52.110;6.050;2023-02-15T17:45:15;18.50;;;11.30;;
37411;SDS011;23278;52.110;6.050;2023-02-15T17:47:42;22.42;;;12.40;;
37411;SDS011;23278;52.110;6.050;2023-02-15T17:50:15;22.83;;;14.48;;
37411;SDS011;23278;52.110;6.050;2023-02-15T17:52:49;17.80;;;10.95;;
37411;SDS011;23278;52.110;6.050;2023-02-15T17:55:17;24.00;;;14.52;;
37411;SDS011;23278;52.110;6.050;2023-02-15T17:58:12;30.75;;;15.48;;
37411;SDS011;23278;52.110;6.050;2023-02-15T18:00:43;26.17;;;14.68;;
37411;SDS011;23278;52.110;6.050;2023-02-15T18:03:51;31.70;;;16.90;;
37411;SDS011;23278;52.110;6.050;2023-02-15T18:06:40;35.38;;;17.45;;
37411;SDS011;23278;52.110;6.050;2023-02-15T18:09:25;26.17;;;16.77;;
37411;SDS011;23278;52.110;6.050;2023-02-15T18:12:21;36.88;;;18.98;;
37411;SDS011;23278;52.110;6.050;2023-02-15T18:14:52;26.45;;;15.00;;
37411;SDS011;23278;52.110;6.050;2023-02-15T18:17:18;23.50;;;15.35;;
37411;SDS011;23278;52.110;6.050;2023-02-15T18:19:58;23.15;;;14.88;;
37411;SDS011;23278;52.110;6.050;2023-02-15T18:22:30;31.02;;;18.15;;
37411;SDS011;23278;52.110;6.050;2023-02-15T18:24:56;33.78;;;20.13;;
37411;SDS011;23278;52.110;6.050;2023-02-15T18:27:22;28.73;;;16.73;;
37411;SDS011;23278;52.110;6.050;2023-02-15T18:29:49;26.67;;;17.00;;
37411;SDS011;23278;52.110;6.050;2023-02-15T18:32:22;24.30;;;15.15;;
37411;SDS011;23278;52.110;6.050;2023-02-15T18:34:55;30.17;;;17.13;;
37411;SDS011;23278;52.110;6.050;2023-02-15T18:37:22;28.75;;;16.70;;